Time;durP1;ratioP1;P1;durP2;ratioP2;P2;SDS_P1;SDS_P2;PMS_P1;PMS_P2;Temp;Humidity;BMP_temperature;BMP_pressure;BME280_temperature;BME280_humidity;BME280_pressure;Samples;Min_cycle;Max_cycle;Signal;HPM_P1;HPM_P2
2022/03/04 00:09:47;;;;;;;91.80;41.60;;;;;;;-1.20;68.12;98738.92;432964;1270;111289;-40
2022/03/04 00:19:54;;;;;;;91.10;39.90;;;;;;;-1.23;68.48;98744.73;432698;1269;107809;-44
2022/03/04 00:30:02;;;;;;;97.20;37.90;;;;;;;-1.24;68.53;98747.06;432325;1271;108811;-42
2022/03/04 00:50:17;;;;;;;82.40;37.90;;;;;;;-1.30;68.67;98731.06;432634;1269;111468;-39
2022/03/04 01:00:25;;;;;;;70.30;37.00;;;;;;;-1.30;68.78;98730.86;432820;1270;107757;-40
2022/03/04 01:10:32;;;;;;;63.60;30.50;;;;;;;-1.22;68.61;98728.33;432774;1270;97990;-42
2022/03/04 01:20:40;;;;;;;87.80;36.50;;;;;;;-1.12;68.74;98725.68;432692;1270;110047;-41
2022/03/04 01:30:47;;;;;;;85.90;36.70;;;;;;;-1.12;68.87;98719.04;432740;1270;109202;-43
2022/03/04 01:40:54;;;;;;;78.30;35.70;;;;;;;-1.15;69.14;98717.63;432745;1270;97827;-42
2022/03/04 01:51:02;;;;;;;62.80;29.50;;;;;;;-1.21;69.16;98719.13;432810;1270;111283;-43
2022/03/04 02:01:10;;;;;;;71.10;30.80;;;;;;;-1.24;69.48;98719.70;432628;1270;108825;-41
2022/03/04 02:11:18;;;;;;;52.50;24.70;;;;;;;-1.21;69.52;98717.52;432724;1270;109054;-43
2022/03/04 02:21:27;;;;;;;43.10;23.90;;;;;;;-1.07;70.06;98710.27;433429;1260;96605;-40
2022/03/04 02:31:34;;;;;;;45.70;21.00;;;;;;;-0.96;70.31;98709.79;432843;1269;107859;-40
2022/03/04 02:41:42;;;;;;;43.60;22.50;;;;;;;-0.86;70.74;98716.48;432578;1270;97903;-40
2022/03/04 02:51:49;;;;;;;55.70;27.70;;;;;;;-0.86;71.52;98711.59;432652;1268;111155;-41
2022/03/04 03:01:57;;;;;;;56.00;26.50;;;;;;;-0.94;72.01;98714.52;432677;1270;108804;-42
2022/03/04 03:12:05;;;;;;;47.30;23.50;;;;;;;-1.01;72.51;98715.16;432577;1270;107778;-42
2022/03/04 03:22:14;;;;;;;46.30;24.30;;;;;;;-0.96;72.93;98713.96;432652;1270;97533;-42
2022/03/04 03:32:21;;;;;;;44.30;24.20;;;;;;;-0.91;73.19;98710.58;432689;1269;108592;-41
2022/03/04 03:42:28;;;;;;;64.90;30.00;;;;;;;-0.91;73.48;98709.46;432729;1269;96678;-41
2022/03/04 03:52:33;;;;;;;80.90;33.70;;;;;;;-1.00;74.52;98708.48;432864;1270;110915;-43
2022/03/04 04:02:43;;;;;;;;;;;;;;;-1.01;75.02;98709.29;432768;1270;108870;-40
2022/03/04 04:22:57;;;;;;;67.50;32.10;;;;;;;-0.94;75.23;98722.75;432737;1270;111539;-42
2022/03/04 04:33:04;;;;;;;81.30;30.60;;;;;;;-0.91;75.19;98725.45;432624;1270;108775;-43
2022/03/04 04:43:11;;;;;;;99.90;41.40;;;;;;;-0.90;75.09;98723.31;432758;1270;97833;-41
2022/03/04 04:53:18;;;;;;;91.00;37.90;;;;;;;-0.96;75.17;98731.27;432750;1269;111155;-40
2022/03/04 05:03:27;;;;;;;105.70;45.30;;;;;;;-1.05;75.52;98729.45;432751;1270;108840;-44
2022/03/04 05:13:35;;;;;;;97.30;46.20;;;;;;;-1.04;75.42;98728.61;432738;1270;107800;-41
2022/03/04 05:34:07;;;;;;;86.70;39.40;;;;;;;-0.91;75.46;98732.23;432652;1269;108881;-40
2022/03/04 05:44:15;;;;;;;86.90;39.00;;;;;;;-0.86;75.61;98736.34;432606;1270;96693;-40
2022/03/04 05:54:22;;;;;;;104.30;42.00;;;;;;;-0.79;75.91;98745.88;432641;1269;111045;-40
2022/03/04 06:04:29;;;;;;;132.30;50.20;;;;;;;-0.73;76.30;98764.60;432798;1270;108786;-40
2022/03/04 06:14:37;;;;;;;137.50;52.10;;;;;;;-0.76;76.66;98774.58;432768;1270;97893;-40
2022/03/04 06:24:44;;;;;;;139.30;52.10;;;;;;;-0.75;76.50;98783.70;432803;1270;111269;-40
2022/03/04 06:34:52;;;;;;;106.70;44.00;;;;;;;-0.74;76.69;98799.13;432829;1270;109156;-40
2022/03/04 06:44:59;;;;;;;111.20;47.00;;;;;;;-0.60;76.68;98804.67;432618;1270;109086;-40
2022/03/04 06:55:09;;;;;;;109.70;46.20;;;;;;;-0.41;76.67;98810.73;432779;1270;97905;-42
2022/03/04 07:05:16;;;;;;;98.70;46.10;;;;;;;-0.26;76.93;98810.55;432720;1270;108954;-41
2022/03/04 07:15:23;;;;;;;141.10;57.90;;;;;;;-0.18;76.94;98819.85;432716;1270;97041;-41
2022/03/04 07:25:31;;;;;;;139.50;60.70;;;;;;;-0.13;77.03;98820.64;432704;1270;97891;-40
2022/03/04 07:45:45;;;;;;;91.70;40.70;;;;;;;0.09;77.03;98831.73;432622;1269;108730;-40
2022/03/04 07:55:53;;;;;;;81.70;37.40;;;;;;;0.23;77.01;98842.82;432828;1269;97993;-42
2022/03/04 08:06:00;;;;;;;81.80;37.60;;;;;;;0.37;77.44;98850.85;432602;1270;111244;-40
2022/03/04 08:16:07;;;;;;;109.40;47.30;;;;;;;0.53;77.37;98852.45;432770;1270;108900;-41
2022/03/04 08:26:15;;;;;;;105.80;45.50;;;;;;;0.72;77.40;98860.41;432774;1269;96729;-42
2022/03/04 08:36:22;;;;;;;136.00;54.40;;;;;;;0.69;77.63;98864.55;432620;1270;111040;-40
2022/03/04 08:46:28;;;;;;;79.10;37.60;;;;;;;0.72;77.51;98869.98;432659;1270;108874;-42
2022/03/04 09:06:39;;;;;;;88.20;41.50;;;;;;;1.35;77.46;98883.33;432708;1270;109954;-43
2022/03/04 09:16:46;;;;;;;102.00;44.00;;;;;;;1.25;77.58;98888.27;432514;1270;109360;-41
2022/03/04 09:26:54;;;;;;;92.00;38.90;;;;;;;1.16;77.67;98895.58;428293;1269;5625280;-40
2022/03/04 09:37:00;;;;;;;62.90;27.90;;;;;;;1.19;77.63;98899.58;432269;1270;111498;-40
2022/03/04 09:47:04;;;;;;;68.30;32.00;;;;;;;1.21;78.03;98907.84;432839;1270;108833;-41
2022/03/04 09:57:12;;;;;;;69.70;32.00;;;;;;;1.14;78.04;98914.98;432712;1270;97913;-41
2022/03/04 10:07:20;;;;;;;69.20;29.40;;;;;;;1.10;78.02;98915.83;432590;1270;107826;-42
2022/03/04 10:17:27;;;;;;;97.90;35.30;;;;;;;1.10;78.09;98919.89;432683;1270;97903;-41
2022/03/04 10:27:35;;;;;;;109.20;42.00;;;;;;;1.10;78.31;98924.26;432599;1270;97471;-42
2022/03/04 10:37:40;;;;;;;77.50;30.10;;;;;;;1.09;78.20;98919.64;432863;1270;110825;-41
2022/03/04 10:57:57;;;;;;;63.50;29.40;;;;;;;1.23;78.20;98914.37;432716;1270;98820;-41
2022/03/04 11:08:06;;;;;;;47.90;25.00;;;;;;;1.65;78.31;98921.96;432707;1269;112453;-42
2022/03/04 11:18:15;;;;;;;79.50;32.90;;;;;;;1.64;78.33;98920.16;432485;1270;108730;-42
2022/03/04 11:28:21;;;;;;;82.60;35.00;;;;;;;2.23;78.65;98894.92;432544;1269;98853;-40
2022/03/04 11:49:29;;;;;;;49.70;23.30;;;;;;;2.42;78.27;98913.09;432389;1271;108786;-40
2022/03/04 11:59:37;;;;;;;50.80;24.20;;;;;;;2.47;78.25;98907.15;432413;1271;99257;-41
2022/03/04 12:09:48;;;;;;;62.10;28.80;;;;;;;2.43;78.24;98901.23;432359;1269;108267;-43
2022/03/04 12:40:22;;;;;;;51.70;27.80;;;;;;;2.18;78.25;98895.94;432298;1270;107962;-41
2022/03/04 12:50:33;;;;;;;60.40;29.40;;;;;;;2.32;77.85;98898.12;432167;1271;99280;-44
2022/03/04 13:00:39;;;;;;;66.00;29.20;;;;;;;2.47;77.76;98894.27;432320;1270;108811;-40
2022/03/04 13:21:07;;;;;;;35.60;19.20;;;;;;;2.76;77.31;98892.02;432233;1270;112046;-40
2022/03/04 13:31:22;;;;;;;32.70;16.00;;;;;;;2.73;76.93;98890.84;432328;1270;109859;-44
2022/03/04 13:41:28;;;;;;;46.50;21.10;;;;;;;2.61;76.62;98888.89;432339;1270;99243;-41
2022/03/04 14:01:38;;;;;;;31.00;16.90;;;;;;;2.53;76.39;98894.96;432367;1270;108846;-40
2022/03/04 14:11:48;;;;;;;44.80;20.00;;;;;;;2.58;76.27;98893.75;432348;1270;99268;-42
2022/03/04 14:21:56;;;;;;;51.90;24.90;;;;;;;2.51;76.37;98897.73;432254;1270;108886;-40
2022/03/04 14:32:04;;;;;;;44.70;21.50;;;;;;;2.43;76.41;98902.45;432261;1270;98005;-41
2022/03/04 14:42:11;;;;;;;39.40;18.40;;;;;;;2.28;76.44;98914.14;432399;1270;110939;-40
2022/03/04 14:52:19;;;;;;;47.90;21.70;;;;;;;1.82;76.71;98929.80;432274;1270;108656;-40
2022/03/04 15:02:27;;;;;;;37.80;22.20;;;;;;;1.44;77.07;98928.40;432489;1269;98049;-42
2022/03/04 15:12:34;;;;;;;78.20;37.50;;;;;;;1.41;77.19;98924.59;432434;1269;108930;-41
2022/03/04 15:22:41;;;;;;;46.80;23.50;;;;;;;1.34;77.51;98925.63;432343;1270;99262;-41
2022/03/04 15:32:49;;;;;;;36.30;19.70;;;;;;;1.25;77.74;98942.41;432475;1270;112395;-42
2022/03/04 15:42:56;;;;;;;42.00;23.40;;;;;;;1.02;78.53;98947.30;432292;1271;108698;-41
2022/03/04 15:53:04;;;;;;;50.70;27.70;;;;;;;0.86;78.56;98951.89;432509;1269;98850;-40
2022/03/04 16:03:11;;;;;;;41.10;25.70;;;;;;;0.81;78.45;98952.80;432347;1270;112371;-41
2022/03/04 16:23:25;;;;;;;71.00;37.60;;;;;;;0.86;78.60;98952.28;432431;1270;99257;-40
2022/03/04 16:33:33;;;;;;;41.60;23.00;;;;;;;0.95;78.82;98959.86;432289;1270;109172;-42
2022/03/04 16:43:41;;;;;;;48.40;24.70;;;;;;;0.91;79.01;98959.32;432554;1269;99334;-43
2022/03/04 16:53:47;;;;;;;65.00;36.10;;;;;;;0.84;79.15;98964.42;432360;1270;111967;-44
2022/03/04 17:03:54;;;;;;;97.20;51.70;;;;;;;0.79;79.22;98978.30;432439;1270;108995;-42
2022/03/04 17:14:02;;;;;;;67.20;39.50;;;;;;;0.74;79.07;98988.71;432447;1270;99264;-41
2022/03/04 17:24:15;;;;;;;65.60;36.80;;;;;;;0.77;78.79;98989.89;432392;1268;112439;-41
2022/03/04 17:34:23;;;;;;;62.70;38.70;;;;;;;0.77;78.89;98991.19;432370;1270;108959;-41
2022/03/04 17:44:30;;;;;;;80.80;43.90;;;;;;;0.81;79.07;98990.31;432377;1268;98909;-42
2022/03/04 17:54:38;;;;;;;76.90;39.90;;;;;;;0.74;79.36;98988.55;432329;1270;108439;-41
2022/03/04 18:04:45;;;;;;;76.60;36.30;;;;;;;0.64;79.59;98991.48;432453;1269;99254;-44
2022/03/04 18:14:52;;;;;;;72.30;34.90;;;;;;;0.55;79.78;98995.38;432496;1269;112999;-41
2022/03/04 18:24:59;;;;;;;67.10;33.80;;;;;;;0.50;79.98;99000.01;432331;1270;108959;-41
2022/03/04 18:35:08;;;;;;;56.80;26.50;;;;;;;0.51;80.03;99009.28;432416;1269;99245;-41
2022/03/04 18:55:41;;;;;;;52.80;28.00;;;;;;;0.60;80.26;99022.13;432295;1271;99294;-41
2022/03/04 19:05:49;;;;;;;57.10;27.10;;;;;;;0.62;80.09;99025.02;432469;1270;112471;-41
2022/03/04 19:15:56;;;;;;;64.10;29.90;;;;;;;0.59;80.16;99024.62;432263;1270;108618;-44
2022/03/04 19:26:04;;;;;;;55.30;26.30;;;;;;;0.45;80.40;99024.82;432402;1270;99240;-41
2022/03/04 19:36:28;;;;;;;36.50;19.80;;;;;;;0.41;80.56;99023.14;432407;1270;112492;-44
2022/03/04 19:56:43;;;;;;;29.30;17.80;;;;;;;0.44;80.93;99018.01;432562;1269;99267;-40
2022/03/04 20:06:49;;;;;;;34.60;17.90;;;;;;;0.42;80.93;99016.96;432486;1270;108646;-43
2022/03/04 20:16:56;;;;;;;48.60;23.90;;;;;;;0.42;81.05;99019.95;432488;1270;98029;-43
2022/03/04 20:37:11;;;;;;;81.60;37.10;;;;;;;0.22;81.27;99020.96;432534;1270;109001;-43
2022/03/04 20:47:18;;;;;;;50.90;24.80;;;;;;;0.14;81.32;99026.30;432676;1270;99260;-41
2022/03/04 20:57:26;;;;;;;52.70;25.10;;;;;;;0.13;81.27;99029.87;432511;1270;112429;-41
2022/03/04 21:07:32;;;;;;;45.70;24.50;;;;;;;0.13;81.23;99030.20;432568;1269;108852;-40
2022/03/04 21:17:39;;;;;;;45.50;22.60;;;;;;;0.15;81.65;99028.26;432551;1270;98826;-41
2022/03/04 21:27:57;;;;;;;46.90;24.70;;;;;;;0.16;81.62;99019.31;432392;1269;532317;-43
2022/03/04 21:48:11;;;;;;;62.30;28.50;;;;;;;0.04;81.94;99024.20;432631;1269;112429;-43
2022/03/04 21:58:18;;;;;;;44.00;24.20;;;;;;;0.00;81.56;99029.38;432573;1270;108795;-41
2022/03/04 22:08:25;;;;;;;42.50;21.20;;;;;;;0.06;81.72;99036.24;432589;1269;98346;-40
2022/03/04 22:18:33;;;;;;;47.40;24.20;;;;;;;0.11;81.78;99033.64;432676;1270;112933;-41
2022/03/04 22:28:40;;;;;;;66.20;30.60;;;;;;;0.14;81.81;99034.06;432695;1270;109812;-41
2022/03/04 22:38:52;;;;;;;65.20;31.50;;;;;;;0.08;81.99;99032.09;432704;1270;99145;-41
2022/03/04 22:49:00;;;;;;;74.20;30.80;;;;;;;0.01;82.01;99032.95;432671;1270;112628;-43
2022/03/04 22:59:07;;;;;;;53.70;28.00;;;;;;;0.05;81.89;99032.06;432622;1269;108180;-42
2022/03/04 23:09:14;;;;;;;49.90;26.00;;;;;;;0.10;81.77;99032.39;432557;1270;98827;-40
2022/03/04 23:19:22;;;;;;;48.90;24.40;;;;;;;0.16;81.90;99035.77;432273;1271;112338;-40
2022/03/04 23:29:29;;;;;;;59.80;29.90;;;;;;;0.23;82.02;99034.00;432727;1269;108803;-42
2022/03/04 23:39:36;;;;;;;51.60;26.70;;;;;;;0.18;82.04;99034.69;432873;1270;98024;-41
2022/03/04 23:49:44;;;;;;;42.00;22.30;;;;;;;0.08;81.98;99037.45;432617;1269;112162;-41
2022/03/04 23:59:51;;;;;;;24.10;14.70;;;;;;;0.06;81.76;99032.66;432607;1269;107848;-44
